Time;durP1;ratioP1;P1;durP2;ratioP2;P2;SDS_P1;SDS_P2;PMS_P1;PMS_P2;Temp;Humidity;BMP_temperature;BMP_pressure;BME280_temperature;BME280_humidity;BME280_pressure;Samples;Min_cycle;Max_cycle;Signal;HPM_P1;HPM_P2
2022/03/26 00:01:45;;;;;;;17.08;2.40;;;35.50;18.40;;;;;;4988681;28;20078;-65
2022/03/26 00:04:12;;;;;;;18.98;2.42;;;35.50;19.50;;;;;;4988876;28;20549;-62
2022/03/26 00:06:39;;;;;;;24.00;2.65;;;35.40;20.10;;;;;;4987732;28;20071;-64
2022/03/26 00:09:05;;;;;;;20.90;2.42;;;35.40;19.30;;;;;;4988734;28;20134;-63
2022/03/26 00:11:32;;;;;;;21.80;2.83;;;35.20;19.20;;;;;;4988526;28;20071;-69
2022/03/26 00:14:00;;;;;;;14.93;2.60;;;35.20;18.80;;;;;;4988285;28;20062;-66
2022/03/26 00:16:28;;;;;;;20.98;3.33;;;35.10;17.90;;;;;;4992375;28;20159;-68
2022/03/26 00:18:54;;;;;;;20.80;2.60;;;35.00;19.10;;;;;;4988311;28;20437;-69
2022/03/26 00:21:21;;;;;;;19.67;2.30;;;35.00;19.10;;;;;;4988252;28;20175;-67
2022/03/26 00:23:47;;;;;;;13.18;2.05;;;34.90;18.70;;;;;;4964289;28;20684;-67
2022/03/26 00:26:15;;;;;;;18.95;2.42;;;34.80;18.60;;;;;;4987059;28;20103;-67
2022/03/26 00:28:42;;;;;;;10.82;2.40;;;34.60;18.60;;;;;;4991275;28;20147;-69
2022/03/26 00:31:08;;;;;;;14.20;2.38;;;34.60;18.70;;;;;;4988514;28;20113;-69
2022/03/26 00:33:35;;;;;;;19.58;2.30;;;34.50;18.90;;;;;;4989462;28;20074;-67
2022/03/26 00:36:02;;;;;;;11.60;2.17;;;34.40;18.40;;;;;;4993718;28;20118;-68
2022/03/26 00:38:30;;;;;;;14.45;2.55;;;34.30;18.70;;;;;;4993541;28;20120;-68
2022/03/26 00:40:58;;;;;;;14.80;2.65;;;34.20;18.40;;;;;;4973873;28;20093;-68
2022/03/26 00:43:24;;;;;;;14.75;3.10;;;34.20;18.40;;;;;;4990131;28;20085;-67
2022/03/26 00:45:51;;;;;;;14.25;1.95;;;34.10;19.10;;;;;;4987943;28;20063;-66
2022/03/26 00:48:18;;;;;;;14.13;2.50;;;34.10;17.80;;;;;;4988187;28;20084;-66
2022/03/26 00:50:44;;;;;;;11.32;2.50;;;34.00;19.00;;;;;;4989994;28;20077;-68
2022/03/26 00:53:14;;;;;;;8.98;2.15;;;33.90;19.50;;;;;;4989058;28;20072;-68
2022/03/26 00:55:40;;;;;;;20.33;2.55;;;33.90;18.90;;;;;;4991474;28;20143;-68
2022/03/26 00:58:07;;;;;;;26.02;3.13;;;33.70;19.00;;;;;;4994192;28;20157;-61
2022/03/26 01:00:33;;;;;;;14.63;2.72;;;33.70;18.70;;;;;;4973685;28;20102;-65
2022/03/26 01:03:02;;;;;;;14.77;2.30;;;33.60;19.10;;;;;;4990791;28;20073;-72
2022/03/26 01:05:29;;;;;;;11.07;2.55;;;33.50;18.80;;;;;;4989636;28;20093;-68
2022/03/26 01:07:55;;;;;;;22.05;2.67;;;33.40;18.30;;;;;;4973978;28;20078;-68
2022/03/26 01:10:22;;;;;;;12.82;2.00;;;33.30;18.30;;;;;;4991314;28;20077;-65
2022/03/26 01:12:48;;;;;;;22.52;3.50;;;33.10;19.30;;;;;;4988039;28;20446;-66
2022/03/26 01:15:15;;;;;;;15.35;2.92;;;33.00;19.40;;;;;;4990399;28;20085;-67
2022/03/26 01:17:41;;;;;;;19.70;2.83;;;32.80;19.50;;;;;;4989170;28;20086;-65
2022/03/26 01:20:08;;;;;;;16.80;2.40;;;32.60;20.10;;;;;;4987671;28;20089;-67
2022/03/26 01:22:34;;;;;;;20.73;2.80;;;32.50;20.90;;;;;;4988935;28;20176;-68
2022/03/26 01:25:01;;;;;;;19.92;3.28;;;32.30;21.30;;;;;;4990935;28;20086;-66
2022/03/26 01:27:27;;;;;;;18.65;2.80;;;32.10;21.50;;;;;;4972603;28;20080;-67
2022/03/26 01:29:54;;;;;;;15.45;2.47;;;32.00;21.70;;;;;;4972851;28;20114;-66
2022/03/26 01:32:20;;;;;;;26.38;2.60;;;31.90;22.40;;;;;;4989084;28;20091;-65
2022/03/26 01:34:47;;;;;;;20.90;2.60;;;31.70;21.60;;;;;;4991290;28;20189;-68
2022/03/26 01:37:16;;;;;;;14.55;2.50;;;31.60;21.90;;;;;;4997355;28;20524;-68
2022/03/26 01:39:43;;;;;;;15.95;2.53;;;31.40;21.90;;;;;;4996206;28;20088;-61
2022/03/26 01:42:10;;;;;;;13.35;2.30;;;31.30;22.30;;;;;;4994632;28;20492;-66
2022/03/26 01:44:38;;;;;;;14.52;2.50;;;31.10;22.80;;;;;;4976826;28;20093;-67
2022/03/26 01:47:05;;;;;;;15.07;2.75;;;31.00;22.60;;;;;;4994593;28;20096;-64
2022/03/26 01:49:33;;;;;;;7.82;2.03;;;30.80;23.00;;;;;;4994269;28;20124;-68
2022/03/26 01:52:03;;;;;;;14.40;2.83;;;30.70;22.60;;;;;;4996377;28;20549;-65
2022/03/26 01:54:31;;;;;;;20.48;2.92;;;30.60;23.40;;;;;;4994122;28;21239;-67
2022/03/26 01:56:58;;;;;;;26.33;3.10;;;30.40;23.70;;;;;;5009199;28;20563;-65
2022/03/26 01:59:27;;;;;;;8.00;2.55;;;30.30;24.00;;;;;;5010188;28;20469;-68
2022/03/26 02:01:54;;;;;;;16.85;2.92;;;30.20;23.90;;;;;;4992240;28;20096;-70
2022/03/26 02:04:20;;;;;;;25.92;3.47;;;30.00;24.50;;;;;;4992303;28;21213;-68
2022/03/26 02:06:48;;;;;;;12.25;2.30;;;29.80;24.40;;;;;;4994525;28;20078;-68
2022/03/26 02:09:15;;;;;;;19.65;3.60;;;29.80;24.70;;;;;;4993018;28;20180;-69
2022/03/26 02:11:44;;;;;;;32.55;3.28;;;29.60;24.60;;;;;;4994101;28;20441;-67
2022/03/26 02:14:13;;;;;;;27.92;3.55;;;29.50;24.90;;;;;;4987192;28;20148;-70
2022/03/26 02:16:41;;;;;;;19.23;3.25;;;29.30;25.80;;;;;;5006734;28;20108;-66
2022/03/26 02:19:09;;;;;;;17.58;3.72;;;29.30;25.80;;;;;;5007298;28;20413;-66
2022/03/26 02:21:40;;;;;;;38.53;5.22;;;29.10;26.00;;;;;;4993715;28;20090;-66
2022/03/26 02:24:08;;;;;;;36.00;10.18;;;29.00;26.00;;;;;;4991567;28;20536;-67
2022/03/26 02:26:35;;;;;;;37.75;7.20;;;28.90;26.40;;;;;;4991674;28;20105;-68
2022/03/26 02:29:08;;;;;;;27.77;7.75;;;28.80;26.50;;;;;;4993453;28;20518;-67
2022/03/26 02:31:36;;;;;;;65.97;9.43;;;28.70;26.70;;;;;;4991439;28;20097;-66
2022/03/26 02:34:04;;;;;;;50.40;10.20;;;28.60;27.00;;;;;;4991213;28;20085;-69
2022/03/26 02:36:30;;;;;;;50.92;14.88;;;28.50;27.20;;;;;;4988962;28;20477;-63
2022/03/26 02:38:58;;;;;;;43.30;12.77;;;28.50;27.30;;;;;;4990276;28;20082;-66
2022/03/26 02:41:24;;;;;;;46.13;12.80;;;28.40;27.60;;;;;;4990506;28;20186;-67
2022/03/26 02:43:51;;;;;;;50.42;14.70;;;28.30;27.60;;;;;;4989814;28;20074;-66
2022/03/26 02:46:18;;;;;;;58.97;14.43;;;28.20;27.90;;;;;;4991791;28;20074;-66
2022/03/26 02:48:44;;;;;;;45.55;12.98;;;28.10;28.00;;;;;;5007131;28;20077;-67
2022/03/26 02:51:11;;;;;;;57.10;11.77;;;28.00;28.30;;;;;;4991135;28;20078;-67
2022/03/26 02:53:37;;;;;;;56.80;11.38;;;27.90;28.50;;;;;;4991350;28;20155;-67
2022/03/26 02:56:04;;;;;;;56.85;11.60;;;27.80;28.10;;;;;;4991258;28;20177;-68
2022/03/26 02:58:30;;;;;;;45.85;10.50;;;27.70;28.50;;;;;;4991201;28;20445;-68
2022/03/26 03:00:57;;;;;;;54.90;11.00;;;27.70;28.80;;;;;;4989984;28;20098;-68
2022/03/26 03:03:24;;;;;;;47.92;10.60;;;27.70;28.90;;;;;;4991207;28;20108;-68
2022/03/26 03:05:50;;;;;;;61.85;11.32;;;27.60;29.20;;;;;;4974892;28;20069;-66
2022/03/26 03:08:16;;;;;;;51.00;11.13;;;27.50;28.40;;;;;;4993773;23;20124;-68
2022/03/26 03:10:43;;;;;;;72.63;11.30;;;27.40;28.50;;;;;;4995085;28;20123;-68
2022/03/26 03:13:10;;;;;;;64.93;12.02;;;27.30;28.30;;;;;;4995381;28;20065;-68
2022/03/26 03:15:37;;;;;;;48.17;12.50;;;27.30;28.50;;;;;;4994783;28;20157;-68
2022/03/26 03:18:03;;;;;;;60.28;12.60;;;27.20;29.00;;;;;;5005059;28;20072;-69
2022/03/26 03:20:30;;;;;;;67.50;12.07;;;27.20;29.30;;;;;;5006854;28;20093;-67
2022/03/26 03:22:59;;;;;;;62.20;11.13;;;27.10;29.20;;;;;;4999883;28;20081;-69
2022/03/26 03:25:26;;;;;;;68.22;11.85;;;27.00;29.00;;;;;;5003755;28;20065;-65
2022/03/26 03:27:53;;;;;;;55.35;12.73;;;27.00;28.30;;;;;;5001886;28;20561;-68
2022/03/26 03:30:19;;;;;;;78.47;13.93;;;26.90;27.80;;;;;;5003776;28;20085;-69
2022/03/26 03:32:46;;;;;;;66.53;13.57;;;26.80;27.70;;;;;;5006184;28;20085;-68
2022/03/26 03:35:12;;;;;;;78.68;13.23;;;26.70;27.30;;;;;;4994343;28;20545;-67
2022/03/26 03:37:39;;;;;;;50.22;11.43;;;26.60;27.50;;;;;;4996877;28;20128;-65
2022/03/26 03:40:07;;;;;;;51.45;11.20;;;26.50;28.10;;;;;;4996478;28;20151;-68
2022/03/26 03:42:34;;;;;;;61.67;13.63;;;26.50;28.30;;;;;;4994120;28;20066;-68
2022/03/26 03:45:01;;;;;;;59.38;12.27;;;26.50;28.10;;;;;;5002047;28;20538;-66
2022/03/26 03:47:27;;;;;;;62.92;12.93;;;26.40;28.20;;;;;;5000081;28;20102;-65
2022/03/26 03:49:53;;;;;;;77.75;14.45;;;26.30;28.40;;;;;;5003666;28;20074;-66
2022/03/26 03:52:20;;;;;;;51.42;11.82;;;26.30;28.40;;;;;;4994156;28;20453;-67
2022/03/26 03:54:46;;;;;;;49.53;12.60;;;26.20;28.60;;;;;;5004744;28;20217;-68
2022/03/26 03:57:13;;;;;;;59.80;14.77;;;26.20;29.00;;;;;;4991389;28;20085;-65
2022/03/26 03:59:41;;;;;;;68.60;15.45;;;26.10;28.80;;;;;;4996277;28;20530;-68
2022/03/26 04:02:09;;;;;;;87.25;17.63;;;26.00;28.70;;;;;;4996190;28;20097;-65
2022/03/26 04:04:42;;;;;;;72.20;16.45;;;26.00;28.70;;;;;;4999118;28;20086;-66
2022/03/26 04:07:09;;;;;;;71.60;16.30;;;26.00;29.20;;;;;;4981710;28;20159;-67
2022/03/26 04:09:37;;;;;;;103.63;19.38;;;25.90;29.30;;;;;;4982058;28;20086;-68
2022/03/26 04:12:04;;;;;;;88.70;16.52;;;25.80;29.40;;;;;;4995019;28;20076;-67
2022/03/26 04:14:32;;;;;;;83.97;16.55;;;25.80;29.80;;;;;;4999578;28;20102;-66
2022/03/26 04:16:58;;;;;;;79.90;16.95;;;25.70;30.00;;;;;;4997988;28;20105;-68
2022/03/26 04:19:25;;;;;;;82.88;18.20;;;25.70;30.40;;;;;;4998203;28;20083;-66
2022/03/26 04:21:52;;;;;;;89.50;18.48;;;25.60;30.50;;;;;;4996014;28;20097;-65
2022/03/26 04:24:18;;;;;;;84.95;20.63;;;25.60;31.00;;;;;;4983408;28;20164;-70
2022/03/26 04:26:45;;;;;;;86.13;20.58;;;25.50;31.10;;;;;;4990161;28;20102;-66
2022/03/26 04:29:11;;;;;;;96.35;22.67;;;25.50;31.20;;;;;;4995374;28;20076;-68
2022/03/26 04:31:38;;;;;;;84.45;21.63;;;25.40;31.20;;;;;;5003991;28;20102;-68
2022/03/26 04:34:04;;;;;;;99.57;21.52;;;25.40;31.50;;;;;;4993046;28;20164;-69
2022/03/26 04:36:31;;;;;;;98.60;23.55;;;25.40;31.80;;;;;;4991301;28;20081;-69
2022/03/26 04:38:59;;;;;;;79.68;24.90;;;25.30;31.70;;;;;;4992018;28;20140;-67
2022/03/26 04:41:26;;;;;;;98.18;27.65;;;25.10;31.50;;;;;;4979945;28;20086;-67
2022/03/26 04:43:52;;;;;;;90.32;26.67;;;25.10;31.40;;;;;;4993776;28;20074;-66
2022/03/26 04:46:19;;;;;;;114.15;26.00;;;25.00;31.40;;;;;;4996395;28;20161;-67
2022/03/26 04:48:46;;;;;;;101.60;31.50;;;25.00;31.60;;;;;;4996530;28;20081;-65
2022/03/26 04:51:14;;;;;;;97.28;27.48;;;24.90;31.40;;;;;;4993680;28;20456;-63
2022/03/26 04:53:40;;;;;;;94.18;25.48;;;24.90;31.70;;;;;;4993093;28;20101;-68
2022/03/26 04:56:14;;;;;;;91.13;24.02;;;24.70;31.90;;;;;;4992218;28;20097;-71
2022/03/26 04:58:40;;;;;;;82.30;21.20;;;24.70;31.90;;;;;;4993636;28;20594;-67
2022/03/26 05:01:07;;;;;;;105.70;21.67;;;24.70;31.50;;;;;;4992851;28;20099;-69
2022/03/26 05:03:33;;;;;;;92.18;21.13;;;24.60;31.20;;;;;;4997366;28;20173;-67
2022/03/26 05:06:00;;;;;;;104.50;23.85;;;24.60;31.70;;;;;;4991728;28;20534;-68
2022/03/26 05:08:26;;;;;;;101.05;22.52;;;24.60;31.70;;;;;;4955267;28;1891456;-67
2022/03/26 05:10:53;;;;;;;86.95;20.98;;;24.50;31.80;;;;;;4997454;28;20458;-68
2022/03/26 05:13:19;;;;;;;104.22;20.50;;;24.50;32.60;;;;;;4980891;28;20086;-69
2022/03/26 05:15:45;;;;;;;79.25;20.00;;;24.40;32.50;;;;;;4995760;28;20079;-67
2022/03/26 05:18:13;;;;;;;101.18;22.63;;;24.40;32.70;;;;;;4996549;28;20130;-70
2022/03/26 05:20:39;;;;;;;99.65;20.77;;;24.30;33.00;;;;;;5004079;28;20081;-67
2022/03/26 05:23:06;;;;;;;118.78;22.58;;;24.20;33.00;;;;;;5002452;28;20094;-65
2022/03/26 05:25:32;;;;;;;111.50;21.55;;;24.20;33.00;;;;;;5000574;28;20165;-67
2022/03/26 05:27:58;;;;;;;116.40;22.95;;;24.10;33.40;;;;;;4996161;28;20090;-67
2022/03/26 05:30:25;;;;;;;93.88;21.42;;;24.10;34.00;;;;;;4978239;28;20144;-66
2022/03/26 05:32:52;;;;;;;114.13;23.15;;;24.10;34.10;;;;;;4995797;28;20527;-69
2022/03/26 05:35:19;;;;;;;116.75;23.50;;;24.00;33.90;;;;;;4999644;28;20085;-68
2022/03/26 05:37:46;;;;;;;144.82;27.00;;;24.00;33.60;;;;;;4999699;28;20071;-68
2022/03/26 05:40:16;;;;;;;142.98;26.05;;;23.90;33.90;;;;;;4979002;28;20546;-66
2022/03/26 05:42:43;;;;;;;129.77;26.15;;;23.90;34.10;;;;;;4999142;28;20082;-65
2022/03/26 05:45:10;;;;;;;154.65;26.05;;;23.80;34.50;;;;;;4995341;28;20075;-68
2022/03/26 05:47:37;;;;;;;147.43;26.27;;;23.80;34.10;;;;;;5000955;28;20113;-68
2022/03/26 05:50:06;;;;;;;167.48;28.25;;;23.70;34.70;;;;;;4996950;28;20079;-67
2022/03/26 05:52:33;;;;;;;105.32;25.00;;;23.70;35.30;;;;;;4980471;28;20109;-67
2022/03/26 05:54:59;;;;;;;141.57;27.38;;;23.70;35.10;;;;;;4996815;28;20257;-68
2022/03/26 05:57:25;;;;;;;121.45;24.95;;;23.60;35.10;;;;;;4996992;28;20087;-66
2022/03/26 05:59:52;;;;;;;156.18;26.20;;;23.50;35.00;;;;;;5002725;28;20077;-65
2022/03/26 06:02:19;;;;;;;119.93;24.30;;;23.50;35.20;;;;;;4997468;28;20176;-67
2022/03/26 06:04:45;;;;;;;116.30;24.55;;;23.50;35.60;;;;;;5003584;28;20074;-67
2022/03/26 06:07:12;;;;;;;122.30;27.73;;;23.40;35.40;;;;;;4996016;28;20584;-67
2022/03/26 06:09:39;;;;;;;121.38;26.80;;;23.30;35.60;;;;;;5003032;28;20077;-66
2022/03/26 06:12:06;;;;;;;132.95;26.60;;;23.30;36.00;;;;;;5001587;28;20173;-69
2022/03/26 06:14:34;;;;;;;113.07;24.30;;;23.30;35.80;;;;;;4996988;28;20078;-67
2022/03/26 06:17:00;;;;;;;128.18;26.58;;;23.20;36.00;;;;;;5003614;28;20162;-67
2022/03/26 06:19:27;;;;;;;126.35;26.73;;;23.10;36.30;;;;;;5000451;28;20099;-67
2022/03/26 06:21:54;;;;;;;133.23;27.52;;;23.00;36.30;;;;;;4997435;28;20091;-67
2022/03/26 06:24:21;;;;;;;123.97;25.92;;;23.00;36.00;;;;;;4997507;28;20071;-62
2022/03/26 06:26:48;;;;;;;131.27;26.60;;;23.00;36.60;;;;;;4997770;28;20102;-67
2022/03/26 06:29:16;;;;;;;124.25;26.27;;;23.00;37.00;;;;;;4993962;28;20070;-67
2022/03/26 06:31:43;;;;;;;149.85;28.38;;;23.00;36.90;;;;;;4993521;28;20466;-68
2022/03/26 06:34:11;;;;;;;146.63;27.55;;;22.90;36.70;;;;;;5001671;28;20081;-68
2022/03/26 06:36:38;;;;;;;128.43;27.85;;;22.90;37.50;;;;;;4996424;28;20070;-67
2022/03/26 06:39:08;;;;;;;103.72;24.42;;;22.90;37.90;;;;;;4996771;28;20488;-69
2022/03/26 06:41:41;;;;;;;99.65;27.40;;;22.80;37.60;;;;;;4997056;28;20677;-68
2022/03/26 06:44:09;;;;;;;115.63;27.00;;;22.70;37.90;;;;;;4994474;28;20082;-69
2022/03/26 06:46:40;;;;;;;111.32;27.15;;;22.70;38.40;;;;;;4995767;28;20078;-69
2022/03/26 06:49:08;;;;;;;118.05;28.02;;;22.70;38.70;;;;;;5000307;28;20079;-68
2022/03/26 06:51:35;;;;;;;127.43;29.40;;;22.60;39.60;;;;;;4999714;28;20079;-68
2022/03/26 06:54:02;;;;;;;141.40;27.30;;;22.60;38.90;;;;;;4996956;28;20129;-68
2022/03/26 06:56:28;;;;;;;98.55;24.35;;;22.50;39.50;;;;;;4998892;28;20122;-63
2022/03/26 06:58:55;;;;;;;121.32;26.48;;;22.50;39.60;;;;;;5005318;28;20070;-68
2022/03/26 07:01:21;;;;;;;141.30;27.35;;;22.50;38.90;;;;;;4996804;28;20095;-68
2022/03/26 07:03:48;;;;;;;112.50;27.02;;;22.30;39.30;;;;;;5005706;28;20085;-68
2022/03/26 07:06:16;;;;;;;125.22;28.10;;;22.30;39.20;;;;;;4997986;28;20592;-70
2022/03/26 07:08:42;;;;;;;136.82;27.67;;;22.40;39.60;;;;;;5016720;28;20110;-68
2022/03/26 07:11:09;;;;;;;147.95;28.20;;;22.30;39.60;;;;;;4995375;28;20122;-68
2022/03/26 07:13:35;;;;;;;112.22;25.42;;;22.30;40.10;;;;;;4995386;28;20129;-67
2022/03/26 07:16:02;;;;;;;134.38;26.95;;;22.20;40.90;;;;;;4993678;28;20090;-67
2022/03/26 07:18:28;;;;;;;122.28;26.45;;;22.20;40.80;;;;;;4999140;28;20079;-66
2022/03/26 07:20:59;;;;;;;129.07;27.77;;;22.20;40.50;;;;;;4997806;28;20137;-66
2022/03/26 07:23:25;;;;;;;129.45;28.63;;;22.10;40.60;;;;;;4993735;28;20610;-67
2022/03/26 07:25:51;;;;;;;152.95;28.08;;;22.10;40.30;;;;;;4994866;28;20531;-67
2022/03/26 07:28:18;;;;;;;105.85;26.35;;;22.10;41.10;;;;;;4993302;28;20097;-68
2022/03/26 07:30:44;;;;;;;137.57;29.90;;;22.10;41.10;;;;;;4996628;28;20087;-65
2022/03/26 07:33:11;;;;;;;137.27;29.42;;;22.00;41.40;;;;;;4996577;28;20106;-65
2022/03/26 07:35:37;;;;;;;276.95;35.55;;;22.00;42.30;;;;;;4991320;28;20078;-69
2022/03/26 07:38:03;;;;;;;426.10;44.75;;;22.00;42.40;;;;;;4996386;28;20130;-67
2022/03/26 07:40:30;;;;;;;1062.43;97.80;;;22.00;42.10;;;;;;4994251;28;20094;-67
2022/03/26 07:42:56;;;;;;;219.38;34.70;;;22.00;42.70;;;;;;4996207;28;20489;-67
2022/03/26 07:45:23;;;;;;;150.43;31.95;;;22.00;42.00;;;;;;4995074;28;20079;-67
2022/03/26 07:47:49;;;;;;;143.90;28.65;;;21.90;42.10;;;;;;4997147;28;20075;-68
2022/03/26 07:50:16;;;;;;;126.20;30.55;;;21.90;42.00;;;;;;4999299;28;20092;-68
2022/03/26 07:52:42;;;;;;;107.18;27.77;;;21.80;42.00;;;;;;5001219;28;20074;-66
2022/03/26 07:55:10;;;;;;;122.55;30.50;;;21.80;42.30;;;;;;5000928;28;20088;-66
2022/03/26 07:57:37;;;;;;;120.82;28.20;;;21.80;42.50;;;;;;4980812;28;20102;-67
2022/03/26 08:00:05;;;;;;;131.32;29.30;;;21.80;42.10;;;;;;5002150;28;20101;-67
2022/03/26 08:02:32;;;;;;;108.85;26.33;;;21.70;42.20;;;;;;4993580;28;20092;-66
2022/03/26 08:04:59;;;;;;;119.18;26.95;;;21.70;41.50;;;;;;4994341;28;20147;-67
2022/03/26 08:07:27;;;;;;;109.05;23.50;;;21.70;40.20;;;;;;4991340;28;20103;-66
2022/03/26 08:09:53;;;;;;;108.57;22.77;;;21.70;40.10;;;;;;4993893;28;20078;-67
2022/03/26 08:12:19;;;;;;;91.00;21.75;;;21.80;40.10;;;;;;4985457;28;20071;-67
2022/03/26 08:14:46;;;;;;;79.80;21.33;;;21.80;40.20;;;;;;4980408;28;20174;-69
2022/03/26 08:17:12;;;;;;;77.28;20.90;;;21.80;40.00;;;;;;4994935;28;20161;-68
2022/03/26 08:19:40;;;;;;;99.30;20.08;;;21.70;38.90;;;;;;4976936;28;20071;-67
2022/03/26 08:22:06;;;;;;;98.50;20.52;;;21.70;39.00;;;;;;4998182;28;20746;-69
2022/03/26 08:24:33;;;;;;;89.38;19.90;;;21.70;38.90;;;;;;5000835;28;20162;-69
2022/03/26 08:26:59;;;;;;;101.15;20.40;;;21.70;39.00;;;;;;4977067;28;20078;-69
2022/03/26 08:29:26;;;;;;;102.38;21.05;;;21.60;39.10;;;;;;4992282;28;20083;-73
2022/03/26 08:31:52;;;;;;;94.85;22.52;;;21.60;39.60;;;;;;4993160;28;20090;-70
2022/03/26 08:34:20;;;;;;;93.25;21.58;;;21.60;39.70;;;;;;4997314;28;20075;-69
2022/03/26 08:36:46;;;;;;;95.55;21.15;;;21.60;39.50;;;;;;4994662;28;20094;-70
2022/03/26 08:39:13;;;;;;;92.07;21.65;;;21.60;39.60;;;;;;4992961;28;20083;-70
2022/03/26 08:41:39;;;;;;;100.68;22.08;;;21.60;39.10;;;;;;4994385;28;20094;-69
2022/03/26 08:44:06;;;;;;;106.97;22.13;;;21.60;38.70;;;;;;4993593;28;20098;-69
2022/03/26 08:46:34;;;;;;;92.95;22.75;;;21.50;38.50;;;;;;4993530;28;20082;-68
2022/03/26 08:49:00;;;;;;;85.85;22.00;;;21.60;39.30;;;;;;4995349;28;20085;-71
2022/03/26 08:51:26;;;;;;;82.35;21.58;;;21.60;39.40;;;;;;4994148;28;20446;-69
2022/03/26 08:53:53;;;;;;;83.70;22.85;;;21.50;39.10;;;;;;4997968;28;20090;-70
2022/03/26 08:56:19;;;;;;;78.45;20.85;;;21.50;39.00;;;;;;4995605;28;20185;-70
2022/03/26 08:58:46;;;;;;;95.53;22.50;;;21.50;38.90;;;;;;4995097;28;20082;-72
2022/03/26 09:01:12;;;;;;;89.75;21.60;;;21.50;38.90;;;;;;4997243;28;20082;-69
2022/03/26 09:03:40;;;;;;;86.55;22.33;;;21.40;38.70;;;;;;4990336;28;20126;-70
2022/03/26 09:06:08;;;;;;;86.05;22.40;;;21.50;38.90;;;;;;4991181;28;20071;-71
2022/03/26 09:08:35;;;;;;;92.32;22.25;;;21.40;38.60;;;;;;4996309;28;20103;-70
2022/03/26 09:11:03;;;;;;;87.95;22.20;;;21.40;38.90;;;;;;4994970;28;20079;-71
2022/03/26 09:13:29;;;;;;;97.65;23.77;;;21.40;39.20;;;;;;5001565;28;20557;-71
2022/03/26 09:15:56;;;;;;;82.50;21.77;;;21.40;39.20;;;;;;4996055;28;20083;-70
2022/03/26 09:18:24;;;;;;;98.70;23.13;;;21.30;39.30;;;;;;4988168;28;20079;-70
2022/03/26 09:20:51;;;;;;;75.07;20.58;;;21.40;39.00;;;;;;4998257;28;20129;-71
2022/03/26 09:23:17;;;;;;;86.78;23.13;;;21.40;38.90;;;;;;4993030;28;20098;-71
2022/03/26 09:25:44;;;;;;;86.20;23.40;;;21.30;39.00;;;;;;5004954;28;20158;-71
2022/03/26 09:28:10;;;;;;;103.40;23.25;;;21.30;38.80;;;;;;4992909;28;20081;-70
2022/03/26 09:30:37;;;;;;;71.93;21.90;;;21.30;39.90;;;;;;4995414;28;20087;-70
2022/03/26 09:33:04;;;;;;;84.85;21.58;;;21.40;39.70;;;;;;4997719;28;20083;-70
2022/03/26 09:35:31;;;;;;;83.65;22.10;;;21.30;40.10;;;;;;4994435;28;20614;-71
2022/03/26 09:37:57;;;;;;;85.88;23.98;;;21.30;39.90;;;;;;4992470;28;20083;-70
2022/03/26 09:40:24;;;;;;;94.28;24.45;;;21.30;40.60;;;;;;4990519;28;20098;-69
2022/03/26 09:42:52;;;;;;;93.07;22.85;;;21.30;40.10;;;;;;4975422;28;20103;-69
2022/03/26 09:45:19;;;;;;;80.32;22.50;;;21.30;40.40;;;;;;4990003;28;20145;-71
2022/03/26 09:47:46;;;;;;;86.10;25.65;;;21.30;40.30;;;;;;4991245;28;20469;-70
2022/03/26 09:50:13;;;;;;;77.70;25.10;;;21.30;40.40;;;;;;4992777;28;20071;-70
2022/03/26 09:52:40;;;;;;;89.90;24.67;;;21.20;40.10;;;;;;4994565;28;20083;-68
2022/03/26 09:55:11;;;;;;;90.43;24.48;;;21.20;40.40;;;;;;4997004;28;20094;-72
2022/03/26 09:57:38;;;;;;;88.88;25.60;;;21.20;40.30;;;;;;4998563;28;20091;-71
2022/03/26 10:00:06;;;;;;;94.35;26.35;;;21.30;40.40;;;;;;4998198;28;20079;-72
2022/03/26 10:02:32;;;;;;;72.22;26.35;;;21.20;40.40;;;;;;5005061;28;20070;-68
2022/03/26 10:04:59;;;;;;;84.72;26.67;;;21.20;40.40;;;;;;4999835;28;20091;-70
2022/03/26 10:07:29;;;;;;;82.97;24.35;;;21.20;40.20;;;;;;4983176;28;20133;-69
2022/03/26 10:09:56;;;;;;;103.03;26.88;;;21.10;40.30;;;;;;4981718;28;20078;-69
2022/03/26 10:12:27;;;;;;;95.22;23.98;;;21.10;40.80;;;;;;4998768;28;20093;-69
2022/03/26 10:14:54;;;;;;;103.07;24.25;;;21.10;41.20;;;;;;4995827;28;20161;-70
2022/03/26 10:17:28;;;;;;;83.70;23.40;;;21.10;41.30;;;;;;5001099;28;20557;-69
2022/03/26 10:20:02;;;;;;;77.82;22.23;;;21.00;41.60;;;;;;5021447;28;20526;-69
2022/03/26 10:22:40;;;;;;;82.88;20.92;;;20.90;41.60;;;;;;4999145;28;20435;-70
2022/03/26 10:25:12;;;;;;;81.45;24.10;;;20.90;41.80;;;;;;4998959;28;20148;-69
2022/03/26 10:27:40;;;;;;;86.25;21.63;;;20.90;42.40;;;;;;4981218;28;20079;-70
2022/03/26 10:30:07;;;;;;;67.20;22.83;;;20.90;42.10;;;;;;4993254;28;20102;-69
2022/03/26 10:32:50;;;;;;;85.70;23.17;;;20.80;42.20;;;;;;5002560;28;20085;-70
2022/03/26 10:35:28;;;;;;;78.03;22.33;;;20.80;42.30;;;;;;4977809;28;20427;-71
2022/03/26 10:37:58;;;;;;;83.55;28.27;;;20.90;42.50;;;;;;4997458;28;20071;-70
2022/03/26 10:40:35;;;;;;;83.38;25.73;;;20.80;42.70;;;;;;4999092;28;20095;-69
2022/03/26 10:43:13;;;;;;;81.72;24.95;;;20.80;42.90;;;;;;4976478;28;20066;-69
2022/03/26 10:45:50;;;;;;;102.82;24.15;;;20.80;42.80;;;;;;4998966;28;20113;-70
2022/03/26 10:48:22;;;;;;;;;;;20.80;42.60;;;;;;4994312;28;20101;-69
2022/03/26 10:50:59;;;;;;;74.50;21.85;;;20.70;42.80;;;;;;5001720;28;19957;-69
2022/03/26 10:53:35;;;;;;;;;;;20.80;43.10;;;;;;4995120;28;20535;-68
2022/03/26 10:56:06;;;;;;;99.75;21.08;;;20.70;42.70;;;;;;4976994;28;19980;-69
2022/03/26 10:58:35;;;;;;;86.93;21.55;;;20.70;42.40;;;;;;4997222;28;20076;-70
2022/03/26 11:01:03;;;;;;;92.10;21.13;;;20.60;42.90;;;;;;4997815;28;20455;-69
2022/03/26 11:03:29;;;;;;;89.47;20.80;;;20.60;43.50;;;;;;5005308;28;20475;-69
2022/03/26 11:05:57;;;;;;;88.38;21.08;;;20.60;43.70;;;;;;4978071;28;20114;-68
2022/03/26 11:08:27;;;;;;;101.65;20.92;;;20.60;43.30;;;;;;5004361;28;20119;-69
2022/03/26 11:10:59;;;;;;;99.53;21.55;;;20.60;43.70;;;;;;4996433;28;20078;-71
2022/03/26 11:13:28;;;;;;;90.78;20.02;;;20.50;43.30;;;;;;4979722;28;20533;-70
2022/03/26 11:16:01;;;;;;;102.35;22.25;;;20.50;43.40;;;;;;4997633;28;20129;-72
2022/03/26 11:18:49;;;;;;;90.15;21.63;;;20.50;43.20;;;;;;4993145;28;20553;-70
2022/03/26 11:22:23;;;;;;;114.32;24.15;;;20.50;43.20;;;;;;5019267;28;20090;-70
2022/03/26 11:25:10;;;;;;;97.55;24.42;;;20.50;43.50;;;;;;4932666;28;20271;-68
2022/03/26 11:28:05;;;;;;;105.35;24.45;;;20.50;43.80;;;;;;5019772;28;20144;-69
2022/03/26 11:30:51;;;;;;;107.47;25.05;;;20.50;43.90;;;;;;5018358;28;20180;-70
2022/03/26 11:33:19;;;;;;;113.00;30.67;;;20.30;44.10;;;;;;4996769;28;20103;-69
2022/03/26 11:36:16;;;;;;;139.68;30.40;;;20.40;44.10;;;;;;4999269;28;20079;-69
2022/03/26 11:38:55;;;;;;;143.40;31.47;;;20.30;43.50;;;;;;4993599;28;20091;-68
2022/03/26 11:41:32;;;;;;;146.15;33.95;;;20.30;43.50;;;;;;5002095;28;20098;-70
2022/03/26 11:44:01;;;;;;;162.43;34.67;;;20.30;44.10;;;;;;5000599;28;20074;-69
2022/03/26 11:50:41;;;;;;;174.02;36.65;;;20.40;44.50;;;;;;4998927;28;20117;-68
2022/03/26 11:52:34;;;;;;;143.43;34.67;;;20.30;43.70;;;;;;4995967;28;20091;-70
2022/03/26 11:55:01;;;;;;;140.07;33.40;;;20.30;43.50;;;;;;4976435;28;20071;-71
2022/03/26 11:57:29;;;;;;;164.50;36.30;;;20.30;43.70;;;;;;4995166;28;20086;-70
2022/03/26 11:59:58;;;;;;;143.48;33.85;;;20.30;43.30;;;;;;5003690;28;20079;-70
2022/03/26 12:02:27;;;;;;;139.68;35.67;;;20.20;43.20;;;;;;4995311;28;20086;-69
2022/03/26 12:06:36;;;;;;;171.55;36.47;;;20.20;42.80;;;;;;4990811;28;20523;-69
2022/03/26 12:08:08;;;;;;;172.60;37.13;;;20.30;43.10;;;;;;4995575;28;20125;-72
2022/03/26 12:10:34;;;;;;;151.88;36.50;;;20.20;43.00;;;;;;4995918;28;20275;-70
2022/03/26 12:13:03;;;;;;;168.18;37.90;;;20.30;43.10;;;;;;4999878;28;20553;-70
2022/03/26 12:15:35;;;;;;;166.25;34.67;;;20.20;43.10;;;;;;4977681;28;20130;-71
2022/03/26 12:18:14;;;;;;;157.73;35.95;;;20.20;43.50;;;;;;4985129;28;20554;-70
2022/03/26 12:20:48;;;;;;;140.77;35.78;;;20.20;43.10;;;;;;4996641;28;20101;-70
2022/03/26 12:23:19;;;;;;;126.30;34.70;;;20.20;43.10;;;;;;4993444;28;20112;-69
2022/03/26 12:25:51;;;;;;;182.93;37.75;;;20.20;43.50;;;;;;4994299;28;20067;-72
2022/03/26 12:28:35;;;;;;;147.02;36.42;;;20.20;44.00;;;;;;4996954;28;20070;-70
2022/03/26 12:31:04;;;;;;;149.73;35.47;;;20.10;43.10;;;;;;4999017;28;20070;-70
2022/03/26 12:33:45;;;;;;;152.68;37.22;;;20.10;42.80;;;;;;4996033;28;20086;-69
2022/03/26 12:36:13;;;;;;;153.40;35.47;;;20.20;44.10;;;;;;4992842;28;20090;-68